sensor_id;sensor_type;location;lat;lon;timestamp;temperature;humidity
28773;DHT22;15925;51.222;5.678;2022-07-24T00:00:25;19.70;99.90
28773;DHT22;15925;51.222;5.678;2022-07-24T00:02:51;19.70;99.90
28773;DHT22;15925;51.222;5.678;2022-07-24T00:05:17;19.70;99.90
28773;DHT22;15925;51.222;5.678;2022-07-24T00:07:42;19.70;99.90
28773;DHT22;15925;51.222;5.678;2022-07-24T00:10:09;19.60;99.90
28773;DHT22;15925;51.222;5.678;2022-07-24T00:12:35;19.60;99.90
28773;DHT22;15925;51.222;5.678;2022-07-24T00:15:01;19.50;99.90
28773;DHT22;15925;51.222;5.678;2022-07-24T00:17:27;19.50;99.90
28773;DHT22;15925;51.222;5.678;2022-07-24T00:19:52;19.60;99.90
28773;DHT22;15925;51.222;5.678;2022-07-24T00:22:18;19.50;99.90
28773;DHT22;15925;51.222;5.678;2022-07-24T00:24:44;19.50;99.90
28773;DHT22;15925;51.222;5.678;2022-07-24T00:27:10;19.40;99.90
28773;DHT22;15925;51.222;5.678;2022-07-24T00:29:36;19.40;99.90
28773;DHT22;15925;51.222;5.678;2022-07-24T00:32:01;19.40;99.90
28773;DHT22;15925;51.222;5.678;2022-07-24T00:34:27;19.40;99.90
28773;DHT22;15925;51.222;5.678;2022-07-24T00:36:53;19.40;99.90
28773;DHT22;15925;51.222;5.678;2022-07-24T00:39:19;19.40;99.90
28773;DHT22;15925;51.222;5.678;2022-07-24T00:41:45;19.30;99.90
28773;DHT22;15925;51.222;5.678;2022-07-24T00:44:15;19.30;99.90
28773;DHT22;15925;51.222;5.678;2022-07-24T00:46:42;19.20;99.90
28773;DHT22;15925;51.222;5.678;2022-07-24T00:49:11;19.30;99.90
28773;DHT22;15925;51.222;5.678;2022-07-24T00:51:40;19.20;99.90
28773;DHT22;15925;51.222;5.678;2022-07-24T00:54:07;19.20;99.90
28773;DHT22;15925;51.222;5.678;2022-07-24T00:56:34;19.20;99.90
28773;DHT22;15925;51.222;5.678;2022-07-24T00:59:01;19.10;99.90
28773;DHT22;15925;51.222;5.678;2022-07-24T01:01:26;19.10;99.90
28773;DHT22;15925;51.222;5.678;2022-07-24T01:03:53;19.10;99.90
28773;DHT22;15925;51.222;5.678;2022-07-24T01:06:19;19.10;99.90
28773;DHT22;15925;51.222;5.678;2022-07-24T01:08:45;19.10;99.90
28773;DHT22;15925;51.222;5.678;2022-07-24T01:11:11;19.10;99.90
28773;DHT22;15925;51.222;5.678;2022-07-24T01:13:38;19.00;99.90
28773;DHT22;15925;51.222;5.678;2022-07-24T01:16:04;19.00;99.90
28773;DHT22;15925;51.222;5.678;2022-07-24T01:18:30;19.00;99.90
28773;DHT22;15925;51.222;5.678;2022-07-24T01:20:59;19.00;99.90
28773;DHT22;15925;51.222;5.678;2022-07-24T01:23:24;19.00;99.90
28773;DHT22;15925;51.222;5.678;2022-07-24T01:25:51;19.00;99.90
28773;DHT22;15925;51.222;5.678;2022-07-24T01:28:17;18.90;99.90
28773;DHT22;15925;51.222;5.678;2022-07-24T01:30:43;18.90;99.90
28773;DHT22;15925;51.222;5.678;2022-07-24T01:33:09;18.90;99.90
28773;DHT22;15925;51.222;5.678;2022-07-24T01:35:35;18.90;99.90
28773;DHT22;15925;51.222;5.678;2022-07-24T01:38:01;18.90;99.90
28773;DHT22;15925;51.222;5.678;2022-07-24T01:40:27;18.80;99.90
28773;DHT22;15925;51.222;5.678;2022-07-24T01:42:53;18.80;99.90
28773;DHT22;15925;51.222;5.678;2022-07-24T01:45:21;18.80;99.90
28773;DHT22;15925;51.222;5.678;2022-07-24T01:47:47;18.80;99.90
28773;DHT22;15925;51.222;5.678;2022-07-24T01:50:14;18.80;99.90
28773;DHT22;15925;51.222;5.678;2022-07-24T01:52:40;18.80;99.90
28773;DHT22;15925;51.222;5.678;2022-07-24T01:55:07;18.70;99.90
28773;DHT22;15925;51.222;5.678;2022-07-24T01:57:33;18.70;99.90
28773;DHT22;15925;51.222;5.678;2022-07-24T02:00:00;18.70;99.90
28773;DHT22;15925;51.222;5.678;2022-07-24T02:02:26;18.70;99.90
28773;DHT22;15925;51.222;5.678;2022-07-24T02:04:52;18.60;99.90
28773;DHT22;15925;51.222;5.678;2022-07-24T02:07:18;18.60;99.90
28773;DHT22;15925;51.222;5.678;2022-07-24T02:09:44;18.60;99.90
28773;DHT22;15925;51.222;5.678;2022-07-24T02:12:10;18.50;99.90
28773;DHT22;15925;51.222;5.678;2022-07-24T02:14:35;18.50;99.90
28773;DHT22;15925;51.222;5.678;2022-07-24T02:17:01;18.50;99.90
28773;DHT22;15925;51.222;5.678;2022-07-24T02:19:27;18.50;99.90
28773;DHT22;15925;51.222;5.678;2022-07-24T02:21:53;18.50;99.90
28773;DHT22;15925;51.222;5.678;2022-07-24T02:24:19;18.40;99.90
28773;DHT22;15925;51.222;5.678;2022-07-24T02:26:44;18.50;99.90
28773;DHT22;15925;51.222;5.678;2022-07-24T02:29:10;18.40;99.90
28773;DHT22;15925;51.222;5.678;2022-07-24T02:31:36;18.40;99.90
28773;DHT22;15925;51.222;5.678;2022-07-24T02:34:02;18.40;99.90
28773;DHT22;15925;51.222;5.678;2022-07-24T02:36:28;18.40;99.90
28773;DHT22;15925;51.222;5.678;2022-07-24T02:38:54;18.30;99.90
28773;DHT22;15925;51.222;5.678;2022-07-24T02:41:19;18.30;99.90
28773;DHT22;15925;51.222;5.678;2022-07-24T02:43:45;18.30;99.90
28773;DHT22;15925;51.222;5.678;2022-07-24T02:46:11;18.30;99.90
28773;DHT22;15925;51.222;5.678;2022-07-24T02:48:37;18.30;99.90
28773;DHT22;15925;51.222;5.678;2022-07-24T02:51:03;18.30;99.90
28773;DHT22;15925;51.222;5.678;2022-07-24T02:53:29;18.30;99.90
28773;DHT22;15925;51.222;5.678;2022-07-24T02:55:55;18.20;99.90
28773;DHT22;15925;51.222;5.678;2022-07-24T02:58:21;18.20;99.90
28773;DHT22;15925;51.222;5.678;2022-07-24T03:00:46;18.20;99.90
28773;DHT22;15925;51.222;5.678;2022-07-24T03:03:12;18.10;99.90
28773;DHT22;15925;51.222;5.678;2022-07-24T03:05:39;18.10;99.90
28773;DHT22;15925;51.222;5.678;2022-07-24T03:08:05;18.10;99.90
28773;DHT22;15925;51.222;5.678;2022-07-24T03:10:30;18.10;99.90
28773;DHT22;15925;51.222;5.678;2022-07-24T03:12:56;18.10;99.90
28773;DHT22;15925;51.222;5.678;2022-07-24T03:15:22;18.10;99.90
28773;DHT22;15925;51.222;5.678;2022-07-24T03:17:50;18.10;99.90
28773;DHT22;15925;51.222;5.678;2022-07-24T03:20:16;18.10;99.90
28773;DHT22;15925;51.222;5.678;2022-07-24T03:22:43;18.10;99.90
28773;DHT22;15925;51.222;5.678;2022-07-24T03:25:09;18.10;99.90
28773;DHT22;15925;51.222;5.678;2022-07-24T03:27:35;18.00;99.90
28773;DHT22;15925;51.222;5.678;2022-07-24T03:30:01;18.00;99.90
28773;DHT22;15925;51.222;5.678;2022-07-24T03:32:27;18.00;99.90
28773;DHT22;15925;51.222;5.678;2022-07-24T03:34:52;18.00;99.90
28773;DHT22;15925;51.222;5.678;2022-07-24T03:37:18;18.00;99.90
28773;DHT22;15925;51.222;5.678;2022-07-24T03:39:44;18.00;99.90
28773;DHT22;15925;51.222;5.678;2022-07-24T03:42:10;18.00;99.90
28773;DHT22;15925;51.222;5.678;2022-07-24T03:44:36;18.00;99.90
28773;DHT22;15925;51.222;5.678;2022-07-24T03:47:02;18.00;99.90
28773;DHT22;15925;51.222;5.678;2022-07-24T03:49:27;18.00;99.90
28773;DHT22;15925;51.222;5.678;2022-07-24T03:51:53;18.00;99.90
28773;DHT22;15925;51.222;5.678;2022-07-24T03:54:19;18.00;99.90
28773;DHT22;15925;51.222;5.678;2022-07-24T03:56:45;18.00;99.90
28773;DHT22;15925;51.222;5.678;2022-07-24T03:59:10;18.00;99.90
28773;DHT22;15925;51.222;5.678;2022-07-24T04:01:36;17.90;99.90
28773;DHT22;15925;51.222;5.678;2022-07-24T04:04:02;18.00;99.90
28773;DHT22;15925;51.222;5.678;2022-07-24T04:06:33;17.90;99.90
28773;DHT22;15925;51.222;5.678;2022-07-24T04:09:00;17.90;99.90
28773;DHT22;15925;51.222;5.678;2022-07-24T04:11:26;17.90;99.90
28773;DHT22;15925;51.222;5.678;2022-07-24T04:13:52;17.80;99.90
28773;DHT22;15925;51.222;5.678;2022-07-24T04:16:19;17.80;99.90
28773;DHT22;15925;51.222;5.678;2022-07-24T04:18:45;17.90;99.90
28773;DHT22;15925;51.222;5.678;2022-07-24T04:21:10;17.80;99.90
28773;DHT22;15925;51.222;5.678;2022-07-24T04:23:36;17.80;99.90
28773;DHT22;15925;51.222;5.678;2022-07-24T04:26:03;17.90;99.90
28773;DHT22;15925;51.222;5.678;2022-07-24T04:28:29;17.80;99.90
28773;DHT22;15925;51.222;5.678;2022-07-24T04:30:55;17.80;99.90
28773;DHT22;15925;51.222;5.678;2022-07-24T04:33:20;17.80;99.90
28773;DHT22;15925;51.222;5.678;2022-07-24T04:35:46;17.80;99.90
28773;DHT22;15925;51.222;5.678;2022-07-24T04:38:12;17.80;99.90
28773;DHT22;15925;51.222;5.678;2022-07-24T04:40:38;17.90;99.90
28773;DHT22;15925;51.222;5.678;2022-07-24T04:43:04;17.90;99.90
28773;DHT22;15925;51.222;5.678;2022-07-24T04:45:30;17.90;99.90
28773;DHT22;15925;51.222;5.678;2022-07-24T04:47:56;17.90;99.90
28773;DHT22;15925;51.222;5.678;2022-07-24T04:50:22;17.90;99.90
28773;DHT22;15925;51.222;5.678;2022-07-24T04:52:53;17.80;99.90
28773;DHT22;15925;51.222;5.678;2022-07-24T04:55:19;17.90;99.90
28773;DHT22;15925;51.222;5.678;2022-07-24T04:57:45;17.90;99.90
28773;DHT22;15925;51.222;5.678;2022-07-24T05:00:14;17.90;99.90
28773;DHT22;15925;51.222;5.678;2022-07-24T05:02:40;17.90;99.90
28773;DHT22;15925;51.222;5.678;2022-07-24T05:05:06;18.00;99.90
28773;DHT22;15925;51.222;5.678;2022-07-24T05:07:32;18.00;99.90
28773;DHT22;15925;51.222;5.678;2022-07-24T05:09:58;18.00;99.90
28773;DHT22;15925;51.222;5.678;2022-07-24T05:12:25;18.00;99.90
28773;DHT22;15925;51.222;5.678;2022-07-24T05:14:51;18.10;99.90
28773;DHT22;15925;51.222;5.678;2022-07-24T05:17:17;18.10;99.90
28773;DHT22;15925;51.222;5.678;2022-07-24T05:19:43;18.10;99.90
28773;DHT22;15925;51.222;5.678;2022-07-24T05:22:08;18.20;99.90
28773;DHT22;15925;51.222;5.678;2022-07-24T05:24:34;18.20;99.90
28773;DHT22;15925;51.222;5.678;2022-07-24T05:27:00;18.20;99.90
28773;DHT22;15925;51.222;5.678;2022-07-24T05:29:26;18.20;99.90
28773;DHT22;15925;51.222;5.678;2022-07-24T05:31:52;18.20;99.90
28773;DHT22;15925;51.222;5.678;2022-07-24T05:34:20;18.30;99.90
28773;DHT22;15925;51.222;5.678;2022-07-24T05:36:47;18.30;99.90
28773;DHT22;15925;51.222;5.678;2022-07-24T05:39:12;18.30;99.90
28773;DHT22;15925;51.222;5.678;2022-07-24T05:41:38;18.30;99.90
28773;DHT22;15925;51.222;5.678;2022-07-24T05:44:04;18.30;99.90
28773;DHT22;15925;51.222;5.678;2022-07-24T05:46:30;18.30;99.90
28773;DHT22;15925;51.222;5.678;2022-07-24T05:48:56;18.30;99.90
28773;DHT22;15925;51.222;5.678;2022-07-24T05:51:22;18.30;99.90
28773;DHT22;15925;51.222;5.678;2022-07-24T05:53:48;18.30;99.90
28773;DHT22;15925;51.222;5.678;2022-07-24T05:56:13;18.40;99.90
28773;DHT22;15925;51.222;5.678;2022-07-24T05:58:39;18.40;99.90
28773;DHT22;15925;51.222;5.678;2022-07-24T06:01:05;18.40;99.90
28773;DHT22;15925;51.222;5.678;2022-07-24T06:03:31;18.40;99.90
28773;DHT22;15925;51.222;5.678;2022-07-24T06:05:57;18.40;99.90
28773;DHT22;15925;51.222;5.678;2022-07-24T06:08:23;18.40;99.90
28773;DHT22;15925;51.222;5.678;2022-07-24T06:10:48;18.50;99.90
28773;DHT22;15925;51.222;5.678;2022-07-24T06:13:14;18.50;99.90
28773;DHT22;15925;51.222;5.678;2022-07-24T06:15:40;18.50;99.90
28773;DHT22;15925;51.222;5.678;2022-07-24T06:18:06;18.50;99.90
28773;DHT22;15925;51.222;5.678;2022-07-24T06:20:31;18.60;99.90
28773;DHT22;15925;51.222;5.678;2022-07-24T06:22:57;18.60;99.90
28773;DHT22;15925;51.222;5.678;2022-07-24T06:25:23;18.70;99.90
28773;DHT22;15925;51.222;5.678;2022-07-24T06:27:50;18.70;99.90
28773;DHT22;15925;51.222;5.678;2022-07-24T06:30:21;18.80;99.90
28773;DHT22;15925;51.222;5.678;2022-07-24T06:32:47;18.80;99.90
28773;DHT22;15925;51.222;5.678;2022-07-24T06:35:14;18.90;99.90
28773;DHT22;15925;51.222;5.678;2022-07-24T06:37:40;19.00;99.90
28773;DHT22;15925;51.222;5.678;2022-07-24T06:40:06;19.10;99.90
28773;DHT22;15925;51.222;5.678;2022-07-24T06:42:33;19.20;99.90
28773;DHT22;15925;51.222;5.678;2022-07-24T06:44:59;19.20;99.90
28773;DHT22;15925;51.222;5.678;2022-07-24T06:47:25;19.30;99.90
28773;DHT22;15925;51.222;5.678;2022-07-24T06:49:55;19.40;99.90
28773;DHT22;15925;51.222;5.678;2022-07-24T06:52:22;19.50;99.90
28773;DHT22;15925;51.222;5.678;2022-07-24T06:54:48;19.60;99.90
28773;DHT22;15925;51.222;5.678;2022-07-24T06:57:14;19.70;99.90
28773;DHT22;15925;51.222;5.678;2022-07-24T06:59:40;19.80;99.90
28773;DHT22;15925;51.222;5.678;2022-07-24T07:02:06;19.90;99.90
28773;DHT22;15925;51.222;5.678;2022-07-24T07:04:32;20.10;99.90
28773;DHT22;15925;51.222;5.678;2022-07-24T07:06:58;20.10;99.90
28773;DHT22;15925;51.222;5.678;2022-07-24T07:09:23;20.20;99.90
28773;DHT22;15925;51.222;5.678;2022-07-24T07:11:50;20.30;99.90
28773;DHT22;15925;51.222;5.678;2022-07-24T07:14:16;20.40;99.90
28773;DHT22;15925;51.222;5.678;2022-07-24T07:16:41;20.50;99.90
28773;DHT22;15925;51.222;5.678;2022-07-24T07:19:07;20.60;99.90
28773;DHT22;15925;51.222;5.678;2022-07-24T07:21:33;20.70;99.90
28773;DHT22;15925;51.222;5.678;2022-07-24T07:23:59;20.70;99.90
28773;DHT22;15925;51.222;5.678;2022-07-24T07:26:24;20.80;99.90
28773;DHT22;15925;51.222;5.678;2022-07-24T07:28:50;20.90;99.90
28773;DHT22;15925;51.222;5.678;2022-07-24T07:31:16;21.10;99.90
28773;DHT22;15925;51.222;5.678;2022-07-24T07:33:42;21.10;99.90
28773;DHT22;15925;51.222;5.678;2022-07-24T07:36:08;21.20;99.90
28773;DHT22;15925;51.222;5.678;2022-07-24T07:38:34;21.30;99.90
28773;DHT22;15925;51.222;5.678;2022-07-24T07:41:02;21.50;99.90
28773;DHT22;15925;51.222;5.678;2022-07-24T07:43:28;21.50;99.90
28773;DHT22;15925;51.222;5.678;2022-07-24T07:45:53;21.60;99.90
28773;DHT22;15925;51.222;5.678;2022-07-24T07:48:19;21.70;99.90
28773;DHT22;15925;51.222;5.678;2022-07-24T07:50:45;21.80;99.90
28773;DHT22;15925;51.222;5.678;2022-07-24T07:53:11;21.90;99.90
28773;DHT22;15925;51.222;5.678;2022-07-24T07:55:36;22.00;99.90
28773;DHT22;15925;51.222;5.678;2022-07-24T07:58:02;22.10;99.90
28773;DHT22;15925;51.222;5.678;2022-07-24T08:00:29;22.20;99.90
28773;DHT22;15925;51.222;5.678;2022-07-24T08:02:55;22.30;99.90
28773;DHT22;15925;51.222;5.678;2022-07-24T08:05:21;22.30;99.90
28773;DHT22;15925;51.222;5.678;2022-07-24T08:07:47;22.50;99.90
28773;DHT22;15925;51.222;5.678;2022-07-24T08:10:12;22.70;99.90
28773;DHT22;15925;51.222;5.678;2022-07-24T08:12:38;22.80;99.90
28773;DHT22;15925;51.222;5.678;2022-07-24T08:15:05;22.80;99.90
28773;DHT22;15925;51.222;5.678;2022-07-24T08:17:31;22.90;99.90
28773;DHT22;15925;51.222;5.678;2022-07-24T08:19:57;23.00;99.90
28773;DHT22;15925;51.222;5.678;2022-07-24T08:22:22;23.10;99.90
28773;DHT22;15925;51.222;5.678;2022-07-24T08:24:48;23.20;99.90
28773;DHT22;15925;51.222;5.678;2022-07-24T08:27:14;23.40;99.90
28773;DHT22;15925;51.222;5.678;2022-07-24T08:29:40;23.50;99.90
28773;DHT22;15925;51.222;5.678;2022-07-24T08:32:06;23.50;99.90
28773;DHT22;15925;51.222;5.678;2022-07-24T08:34:32;23.60;99.90
28773;DHT22;15925;51.222;5.678;2022-07-24T08:36:57;23.70;99.90
28773;DHT22;15925;51.222;5.678;2022-07-24T08:39:23;23.80;99.90
28773;DHT22;15925;51.222;5.678;2022-07-24T08:41:49;23.80;99.90
28773;DHT22;15925;51.222;5.678;2022-07-24T08:44:15;23.80;99.90
28773;DHT22;15925;51.222;5.678;2022-07-24T08:46:42;24.00;99.90
28773;DHT22;15925;51.222;5.678;2022-07-24T08:49:13;24.00;99.90
28773;DHT22;15925;51.222;5.678;2022-07-24T08:51:40;24.10;99.90
28773;DHT22;15925;51.222;5.678;2022-07-24T08:54:08;24.20;99.90
28773;DHT22;15925;51.222;5.678;2022-07-24T08:56:34;24.30;99.90
28773;DHT22;15925;51.222;5.678;2022-07-24T08:59:02;24.40;99.90
28773;DHT22;15925;51.222;5.678;2022-07-24T09:01:28;24.50;99.90
28773;DHT22;15925;51.222;5.678;2022-07-24T09:03:54;24.60;99.90
28773;DHT22;15925;51.222;5.678;2022-07-24T09:06:20;24.70;99.90
28773;DHT22;15925;51.222;5.678;2022-07-24T09:09:00;24.80;99.90
28773;DHT22;15925;51.222;5.678;2022-07-24T09:11:26;24.90;99.90
28773;DHT22;15925;51.222;5.678;2022-07-24T09:14:02;25.00;99.90
28773;DHT22;15925;51.222;5.678;2022-07-24T09:16:47;25.10;99.90
28773;DHT22;15925;51.222;5.678;2022-07-24T09:19:13;25.20;99.90
28773;DHT22;15925;51.222;5.678;2022-07-24T09:21:41;25.30;99.90
28773;DHT22;15925;51.222;5.678;2022-07-24T09:24:15;25.40;99.90
28773;DHT22;15925;51.222;5.678;2022-07-24T09:26:49;25.50;99.90
28773;DHT22;15925;51.222;5.678;2022-07-24T09:29:16;25.60;99.90
28773;DHT22;15925;51.222;5.678;2022-07-24T09:31:53;25.60;99.90
28773;DHT22;15925;51.222;5.678;2022-07-24T09:34:20;25.60;99.90
28773;DHT22;15925;51.222;5.678;2022-07-24T09:36:57;25.80;99.90
28773;DHT22;15925;51.222;5.678;2022-07-24T09:39:24;25.80;99.90
28773;DHT22;15925;51.222;5.678;2022-07-24T09:41:53;25.80;99.90
28773;DHT22;15925;51.222;5.678;2022-07-24T09:44:19;25.80;99.90
28773;DHT22;15925;51.222;5.678;2022-07-24T09:46:58;26.00;99.90
28773;DHT22;15925;51.222;5.678;2022-07-24T09:49:24;26.10;99.90
28773;DHT22;15925;51.222;5.678;2022-07-24T09:52:23;26.10;99.90
28773;DHT22;15925;51.222;5.678;2022-07-24T09:54:58;26.30;99.90
28773;DHT22;15925;51.222;5.678;2022-07-24T09:57:25;26.40;99.90
28773;DHT22;15925;51.222;5.678;2022-07-24T10:02:24;26.60;99.90
28773;DHT22;15925;51.222;5.678;2022-07-24T10:04:50;26.60;99.90
28773;DHT22;15925;51.222;5.678;2022-07-24T10:07:17;26.60;99.90
28773;DHT22;15925;51.222;5.678;2022-07-24T10:09:46;26.70;99.90
28773;DHT22;15925;51.222;5.678;2022-07-24T10:12:15;26.80;99.90
28773;DHT22;15925;51.222;5.678;2022-07-24T10:14:43;26.80;99.90
28773;DHT22;15925;51.222;5.678;2022-07-24T10:17:10;26.90;99.90
28773;DHT22;15925;51.222;5.678;2022-07-24T10:19:47;27.00;99.90
28773;DHT22;15925;51.222;5.678;2022-07-24T10:22:16;27.10;99.90
28773;DHT22;15925;51.222;5.678;2022-07-24T10:29:55;27.30;99.90
28773;DHT22;15925;51.222;5.678;2022-07-24T10:32:23;27.40;99.90
28773;DHT22;15925;51.222;5.678;2022-07-24T10:38:02;27.60;99.90
28773;DHT22;15925;51.222;5.678;2022-07-24T10:40:45;27.60;99.90
28773;DHT22;15925;51.222;5.678;2022-07-24T10:43:15;27.80;99.90
28773;DHT22;15925;51.222;5.678;2022-07-24T10:53:30;28.10;99.90
28773;DHT22;15925;51.222;5.678;2022-07-24T11:01:42;28.30;99.90
28773;DHT22;15925;51.222;5.678;2022-07-24T11:09:16;28.50;99.90
28773;DHT22;15925;51.222;5.678;2022-07-24T11:12:03;28.60;99.90
28773;DHT22;15925;51.222;5.678;2022-07-24T11:17:35;28.60;99.90
28773;DHT22;15925;51.222;5.678;2022-07-24T11:20:03;28.50;99.90
28773;DHT22;15925;51.222;5.678;2022-07-24T11:22:44;28.60;99.90
28773;DHT22;15925;51.222;5.678;2022-07-24T11:25:17;28.50;99.90
28773;DHT22;15925;51.222;5.678;2022-07-24T11:30:44;28.80;99.90
28773;DHT22;15925;51.222;5.678;2022-07-24T11:33:11;28.90;99.90
28773;DHT22;15925;51.222;5.678;2022-07-24T11:35:38;29.00;99.90
28773;DHT22;15925;51.222;5.678;2022-07-24T11:38:06;29.00;99.90
28773;DHT22;15925;51.222;5.678;2022-07-24T11:40:33;28.90;99.90
28773;DHT22;15925;51.222;5.678;2022-07-24T11:43:08;29.00;99.90
28773;DHT22;15925;51.222;5.678;2022-07-24T11:45:36;29.10;99.80
28773;DHT22;15925;51.222;5.678;2022-07-24T11:48:01;29.30;99.90
28773;DHT22;15925;51.222;5.678;2022-07-24T11:50:28;29.40;99.80
28773;DHT22;15925;51.222;5.678;2022-07-24T11:52:54;29.30;99.70
28773;DHT22;15925;51.222;5.678;2022-07-24T11:55:21;29.30;99.50
28773;DHT22;15925;51.222;5.678;2022-07-24T11:57:49;29.30;98.30
28773;DHT22;15925;51.222;5.678;2022-07-24T12:00:22;29.50;99.50
28773;DHT22;15925;51.222;5.678;2022-07-24T12:02:51;29.60;99.20
28773;DHT22;15925;51.222;5.678;2022-07-24T12:05:32;29.60;99.10
28773;DHT22;15925;51.222;5.678;2022-07-24T12:08:01;29.70;98.30
28773;DHT22;15925;51.222;5.678;2022-07-24T12:10:27;29.70;98.70
28773;DHT22;15925;51.222;5.678;2022-07-24T12:12:55;29.90;98.70
28773;DHT22;15925;51.222;5.678;2022-07-24T12:15:22;30.00;98.60
28773;DHT22;15925;51.222;5.678;2022-07-24T12:20:35;30.10;97.70
28773;DHT22;15925;51.222;5.678;2022-07-24T12:23:04;30.00;98.00
28773;DHT22;15925;51.222;5.678;2022-07-24T12:25:31;29.90;98.20
28773;DHT22;15925;51.222;5.678;2022-07-24T12:28:11;29.70;98.10
28773;DHT22;15925;51.222;5.678;2022-07-24T12:30:51;29.70;97.40
28773;DHT22;15925;51.222;5.678;2022-07-24T12:33:25;29.90;97.50
28773;DHT22;15925;51.222;5.678;2022-07-24T12:36:03;30.10;97.70
28773;DHT22;15925;51.222;5.678;2022-07-24T12:38:53;30.20;97.10
28773;DHT22;15925;51.222;5.678;2022-07-24T12:41:22;30.20;97.50
28773;DHT22;15925;51.222;5.678;2022-07-24T12:46:20;30.40;97.70
28773;DHT22;15925;51.222;5.678;2022-07-24T12:48:59;30.50;97.30
28773;DHT22;15925;51.222;5.678;2022-07-24T12:51:26;30.30;96.60
28773;DHT22;15925;51.222;5.678;2022-07-24T12:53:54;30.50;97.10
28773;DHT22;15925;51.222;5.678;2022-07-24T12:56:21;30.50;96.80
28773;DHT22;15925;51.222;5.678;2022-07-24T12:58:57;30.60;97.20
28773;DHT22;15925;51.222;5.678;2022-07-24T13:01:26;30.50;96.70
28773;DHT22;15925;51.222;5.678;2022-07-24T13:04:00;30.20;96.90
28773;DHT22;15925;51.222;5.678;2022-07-24T13:08:59;30.50;96.20
28773;DHT22;15925;51.222;5.678;2022-07-24T13:11:25;30.70;96.60
28773;DHT22;15925;51.222;5.678;2022-07-24T13:13:51;30.80;96.50
28773;DHT22;15925;51.222;5.678;2022-07-24T13:16:16;30.90;96.30
28773;DHT22;15925;51.222;5.678;2022-07-24T13:18:42;30.70;96.30
28773;DHT22;15925;51.222;5.678;2022-07-24T13:21:08;30.80;96.20
28773;DHT22;15925;51.222;5.678;2022-07-24T13:23:34;30.70;96.10
28773;DHT22;15925;51.222;5.678;2022-07-24T13:26:00;30.60;96.00
28773;DHT22;15925;51.222;5.678;2022-07-24T13:28:25;30.60;96.10
28773;DHT22;15925;51.222;5.678;2022-07-24T13:30:51;30.70;94.80
28773;DHT22;15925;51.222;5.678;2022-07-24T13:33:17;30.90;96.10
28773;DHT22;15925;51.222;5.678;2022-07-24T13:35:43;31.10;96.20
28773;DHT22;15925;51.222;5.678;2022-07-24T13:38:09;31.10;95.90
28773;DHT22;15925;51.222;5.678;2022-07-24T13:40:34;31.20;95.80
28773;DHT22;15925;51.222;5.678;2022-07-24T13:43:00;31.30;95.80
28773;DHT22;15925;51.222;5.678;2022-07-24T13:45:26;31.40;95.60
28773;DHT22;15925;51.222;5.678;2022-07-24T13:47:52;31.40;95.50
28773;DHT22;15925;51.222;5.678;2022-07-24T13:50:18;31.50;95.40
28773;DHT22;15925;51.222;5.678;2022-07-24T13:52:43;31.40;95.30
28773;DHT22;15925;51.222;5.678;2022-07-24T13:55:09;31.30;95.30
28773;DHT22;15925;51.222;5.678;2022-07-24T13:57:35;31.30;95.20
28773;DHT22;15925;51.222;5.678;2022-07-24T14:00:01;31.30;95.20
28773;DHT22;15925;51.222;5.678;2022-07-24T14:02:30;31.40;95.20
28773;DHT22;15925;51.222;5.678;2022-07-24T14:04:56;31.30;95.00
28773;DHT22;15925;51.222;5.678;2022-07-24T14:07:22;31.40;94.80
28773;DHT22;15925;51.222;5.678;2022-07-24T14:09:48;31.40;94.80
28773;DHT22;15925;51.222;5.678;2022-07-24T14:12:14;31.50;94.60
28773;DHT22;15925;51.222;5.678;2022-07-24T14:14:40;31.60;94.50
28773;DHT22;15925;51.222;5.678;2022-07-24T14:17:05;31.60;94.50
28773;DHT22;15925;51.222;5.678;2022-07-24T14:19:31;31.40;94.50
28773;DHT22;15925;51.222;5.678;2022-07-24T14:21:57;31.20;94.50
28773;DHT22;15925;51.222;5.678;2022-07-24T14:24:23;31.10;94.50
28773;DHT22;15925;51.222;5.678;2022-07-24T14:26:49;31.30;94.50
28773;DHT22;15925;51.222;5.678;2022-07-24T14:29:16;31.50;94.50
28773;DHT22;15925;51.222;5.678;2022-07-24T14:31:41;31.60;94.40
28773;DHT22;15925;51.222;5.678;2022-07-24T14:34:07;31.70;94.20
28773;DHT22;15925;51.222;5.678;2022-07-24T14:36:33;31.70;94.10
28773;DHT22;15925;51.222;5.678;2022-07-24T14:38:59;31.80;93.80
28773;DHT22;15925;51.222;5.678;2022-07-24T14:41:25;31.90;93.80
28773;DHT22;15925;51.222;5.678;2022-07-24T14:43:50;31.80;93.90
28773;DHT22;15925;51.222;5.678;2022-07-24T14:46:16;31.90;93.80
28773;DHT22;15925;51.222;5.678;2022-07-24T14:48:42;31.90;93.70
28773;DHT22;15925;51.222;5.678;2022-07-24T14:51:08;31.80;93.80
28773;DHT22;15925;51.222;5.678;2022-07-24T14:53:34;31.90;93.60
28773;DHT22;15925;51.222;5.678;2022-07-24T14:56:00;32.00;93.40
28773;DHT22;15925;51.222;5.678;2022-07-24T14:58:25;32.00;93.80
28773;DHT22;15925;51.222;5.678;2022-07-24T15:00:51;31.90;93.40
28773;DHT22;15925;51.222;5.678;2022-07-24T15:03:17;31.80;93.40
28773;DHT22;15925;51.222;5.678;2022-07-24T15:05:43;31.90;93.50
28773;DHT22;15925;51.222;5.678;2022-07-24T15:08:08;31.90;93.40
28773;DHT22;15925;51.222;5.678;2022-07-24T15:10:34;32.00;93.20
28773;DHT22;15925;51.222;5.678;2022-07-24T15:13:00;32.00;93.10
28773;DHT22;15925;51.222;5.678;2022-07-24T15:15:27;31.90;93.20
28773;DHT22;15925;51.222;5.678;2022-07-24T15:17:53;31.80;93.20
28773;DHT22;15925;51.222;5.678;2022-07-24T15:20:19;31.80;93.10
28773;DHT22;15925;51.222;5.678;2022-07-24T15:22:44;31.80;93.10
28773;DHT22;15925;51.222;5.678;2022-07-24T15:25:10;31.90;93.00
28773;DHT22;15925;51.222;5.678;2022-07-24T15:27:36;31.70;93.10
28773;DHT22;15925;51.222;5.678;2022-07-24T15:30:03;31.70;93.10
28773;DHT22;15925;51.222;5.678;2022-07-24T15:32:29;31.90;93.00
28773;DHT22;15925;51.222;5.678;2022-07-24T15:34:55;31.90;92.80
28773;DHT22;15925;51.222;5.678;2022-07-24T15:37:21;31.90;92.70
28773;DHT22;15925;51.222;5.678;2022-07-24T15:39:46;32.00;92.80
28773;DHT22;15925;51.222;5.678;2022-07-24T15:42:12;32.10;92.80
28773;DHT22;15925;51.222;5.678;2022-07-24T15:44:38;32.10;92.70
28773;DHT22;15925;51.222;5.678;2022-07-24T15:47:04;32.20;92.70
28773;DHT22;15925;51.222;5.678;2022-07-24T15:49:30;32.20;92.50
28773;DHT22;15925;51.222;5.678;2022-07-24T15:51:55;32.30;92.30
28773;DHT22;15925;51.222;5.678;2022-07-24T15:54:21;32.20;92.10
28773;DHT22;15925;51.222;5.678;2022-07-24T15:56:47;32.20;91.90
28773;DHT22;15925;51.222;5.678;2022-07-24T15:59:13;32.30;91.90
28773;DHT22;15925;51.222;5.678;2022-07-24T16:01:39;32.20;91.90
28773;DHT22;15925;51.222;5.678;2022-07-24T16:04:04;32.30;91.80
28773;DHT22;15925;51.222;5.678;2022-07-24T16:06:30;32.10;91.80
28773;DHT22;15925;51.222;5.678;2022-07-24T16:08:56;32.20;91.90
28773;DHT22;15925;51.222;5.678;2022-07-24T16:11:22;32.20;91.80